sensor_id;sensor_type;location;lat;lon;timestamp;pressure;altitude;pressure_sealevel;temperature;humidity
23170;BME280;11753;43.144;24.714;2023-05-07T00:00:47;99872.00;;;12.49;100.00
23170;BME280;11753;43.144;24.714;2023-05-07T00:01:48;99872.00;;;12.49;100.00
23170;BME280;11753;43.144;24.714;2023-05-07T00:02:49;99865.59;;;12.52;100.00
23170;BME280;11753;43.144;24.714;2023-05-07T00:03:50;99867.88;;;12.47;100.00
23170;BME280;11753;43.144;24.714;2023-05-07T00:04:51;99870.38;;;12.48;100.00
23170;BME280;11753;43.144;24.714;2023-05-07T00:05:52;99872.34;;;12.46;100.00
23170;BME280;11753;43.144;24.714;2023-05-07T00:06:56;99862.44;;;12.48;100.00
23170;BME280;11753;43.144;24.714;2023-05-07T00:07:57;99874.16;;;12.46;100.00
23170;BME280;11753;43.144;24.714;2023-05-07T00:08:58;99865.41;;;12.45;100.00
23170;BME280;11753;43.144;24.714;2023-05-07T00:09:59;99870.69;;;12.45;100.00
23170;BME280;11753;43.144;24.714;2023-05-07T00:11:00;99871.53;;;12.46;100.00
23170;BME280;11753;43.144;24.714;2023-05-07T00:12:01;99872.69;;;12.43;100.00
23170;BME280;11753;43.144;24.714;2023-05-07T00:13:02;99867.41;;;12.43;100.00
23170;BME280;11753;43.144;24.714;2023-05-07T00:14:03;99870.34;;;12.40;100.00
23170;BME280;11753;43.144;24.714;2023-05-07T00:15:05;99872.16;;;12.39;100.00
23170;BME280;11753;43.144;24.714;2023-05-07T00:16:06;99870.34;;;12.40;100.00
23170;BME280;11753;43.144;24.714;2023-05-07T00:17:07;99872.16;;;12.39;100.00
23170;BME280;11753;43.144;24.714;2023-05-07T00:18:07;99869.34;;;12.41;100.00
23170;BME280;11753;43.144;24.714;2023-05-07T00:19:08;99870.16;;;12.42;100.00
23170;BME280;11753;43.144;24.714;2023-05-07T00:20:09;99874.63;;;12.41;100.00
23170;BME280;11753;43.144;24.714;2023-05-07T00:21:10;99872.97;;;12.40;100.00
23170;BME280;11753;43.144;24.714;2023-05-07T00:22:11;99871.13;;;12.32;100.00
23170;BME280;11753;43.144;24.714;2023-05-07T00:23:12;99868.00;;;12.29;100.00
23170;BME280;11753;43.144;24.714;2023-05-07T00:24:13;99862.03;;;12.27;100.00
23170;BME280;11753;43.144;24.714;2023-05-07T00:25:14;99868.00;;;12.29;100.00
23170;BME280;11753;43.144;24.714;2023-05-07T00:26:15;99870.94;;;12.26;100.00
23170;BME280;11753;43.144;24.714;2023-05-07T00:27:16;99874.56;;;12.25;100.00
23170;BME280;11753;43.144;24.714;2023-05-07T00:28:17;99878.84;;;12.26;100.00
23170;BME280;11753;43.144;24.714;2023-05-07T00:29:18;99871.25;;;12.23;100.00
23170;BME280;11753;43.144;24.714;2023-05-07T00:30:22;99876.84;;;12.20;100.00
23170;BME280;11753;43.144;24.714;2023-05-07T00:31:23;99881.94;;;12.21;100.00
23170;BME280;11753;43.144;24.714;2023-05-07T00:32:24;99881.00;;;12.22;100.00
23170;BME280;11753;43.144;24.714;2023-05-07T00:33:25;99877.53;;;12.22;100.00
23170;BME280;11753;43.144;24.714;2023-05-07T00:34:27;99873.69;;;12.16;100.00
23170;BME280;11753;43.144;24.714;2023-05-07T00:35:31;99880.78;;;12.16;100.00
23170;BME280;11753;43.144;24.714;2023-05-07T00:36:32;99878.94;;;12.08;100.00
23170;BME280;11753;43.144;24.714;2023-05-07T00:37:32;99890.31;;;12.08;100.00
23170;BME280;11753;43.144;24.714;2023-05-07T00:38:33;99875.16;;;12.10;100.00
23170;BME280;11753;43.144;24.714;2023-05-07T00:39:35;99884.72;;;12.11;100.00
23170;BME280;11753;43.144;24.714;2023-05-07T00:40:36;99884.72;;;12.11;100.00
23170;BME280;11753;43.144;24.714;2023-05-07T00:41:37;99883.88;;;12.11;100.00
23170;BME280;11753;43.144;24.714;2023-05-07T00:42:37;99885.38;;;12.13;100.00
23170;BME280;11753;43.144;24.714;2023-05-07T00:43:38;99880.78;;;12.16;100.00
23170;BME280;11753;43.144;24.714;2023-05-07T00:44:39;99887.72;;;12.17;100.00
23170;BME280;11753;43.144;24.714;2023-05-07T00:45:40;99885.91;;;12.17;100.00
23170;BME280;11753;43.144;24.714;2023-05-07T00:46:40;99883.38;;;12.07;100.00
23170;BME280;11753;43.144;24.714;2023-05-07T00:47:41;99878.94;;;12.08;100.00
23170;BME280;11753;43.144;24.714;2023-05-07T00:48:42;99881.06;;;12.04;100.00
23170;BME280;11753;43.144;24.714;2023-05-07T00:49:44;99881.66;;;11.98;100.00
23170;BME280;11753;43.144;24.714;2023-05-07T00:50:46;99881.38;;;12.01;100.00
23170;BME280;11753;43.144;24.714;2023-05-07T00:51:48;99865.13;;;11.88;100.00
23170;BME280;11753;43.144;24.714;2023-05-07T00:52:50;99889.13;;;12.03;100.00
23170;BME280;11753;43.144;24.714;2023-05-07T00:53:51;99894.25;;;12.04;100.00
23170;BME280;11753;43.144;24.714;2023-05-07T00:54:52;99886.66;;;12.01;100.00
23170;BME280;11753;43.144;24.714;2023-05-07T00:55:53;99882.03;;;12.03;100.00
23170;BME280;11753;43.144;24.714;2023-05-07T00:56:55;99881.06;;;12.04;100.00
23170;BME280;11753;43.144;24.714;2023-05-07T00:57:56;99885.88;;;12.09;100.00
23170;BME280;11753;43.144;24.714;2023-05-07T00:58:57;99885.72;;;12.10;100.00
23170;BME280;11753;43.144;24.714;2023-05-07T00:59:58;99878.25;;;12.06;100.00
23170;BME280;11753;43.144;24.714;2023-05-07T01:00:59;99883.69;;;12.04;100.00
23170;BME280;11753;43.144;24.714;2023-05-07T01:02:00;99880.38;;;12.02;100.00
23170;BME280;11753;43.144;24.714;2023-05-07T01:03:01;99871.81;;;12.00;100.00
23170;BME280;11753;43.144;24.714;2023-05-07T01:04:02;99872.84;;;12.07;100.00
23170;BME280;11753;43.144;24.714;2023-05-07T01:05:04;99880.75;;;12.07;100.00
23170;BME280;11753;43.144;24.714;2023-05-07T01:06:07;99875.59;;;12.06;100.00
23170;BME280;11753;43.144;24.714;2023-05-07T01:07:08;99876.44;;;12.06;100.00
23170;BME280;11753;43.144;24.714;2023-05-07T01:08:10;99877.59;;;12.04;100.00
23170;BME280;11753;43.144;24.714;2023-05-07T01:09:11;99873.97;;;12.05;100.00
23170;BME280;11753;43.144;24.714;2023-05-07T01:10:13;99870.13;;;11.99;100.00
23170;BME280;11753;43.144;24.714;2023-05-07T01:11:15;99871.28;;;11.97;100.00
23170;BME280;11753;43.144;24.714;2023-05-07T01:12:16;99864.13;;;11.89;100.00
23170;BME280;11753;43.144;24.714;2023-05-07T01:13:17;99868.38;;;11.82;100.00
23170;BME280;11753;43.144;24.714;2023-05-07T01:14:19;99868.06;;;11.85;100.00
23170;BME280;11753;43.144;24.714;2023-05-07T01:15:21;99868.06;;;11.85;100.00
23170;BME280;11753;43.144;24.714;2023-05-07T01:16:22;99868.38;;;11.82;100.00
23170;BME280;11753;43.144;24.714;2023-05-07T01:17:23;99862.72;;;11.77;100.00
23170;BME280;11753;43.144;24.714;2023-05-07T01:18:24;99863.69;;;11.76;100.00
23170;BME280;11753;43.144;24.714;2023-05-07T01:19:26;99866.16;;;11.77;100.00
23170;BME280;11753;43.144;24.714;2023-05-07T01:20:29;99860.06;;;11.77;100.00
23170;BME280;11753;43.144;24.714;2023-05-07T01:21:33;99869.63;;;11.78;100.00
23170;BME280;11753;43.144;24.714;2023-05-07T01:22:35;99863.47;;;11.69;100.00
23170;BME280;11753;43.144;24.714;2023-05-07T01:23:38;99864.31;;;11.70;100.00
23170;BME280;11753;43.144;24.714;2023-05-07T01:24:40;99855.72;;;11.68;100.00
23170;BME280;11753;43.144;24.714;2023-05-07T01:25:42;99856.66;;;11.58;100.00
23170;BME280;11753;43.144;24.714;2023-05-07T01:26:43;99856.34;;;11.62;100.00
23170;BME280;11753;43.144;24.714;2023-05-07T01:27:45;99853.72;;;11.62;100.00
23170;BME280;11753;43.144;24.714;2023-05-07T01:28:46;99858.75;;;11.55;100.00
23170;BME280;11753;43.144;24.714;2023-05-07T01:29:49;99851.19;;;11.52;100.00
23170;BME280;11753;43.144;24.714;2023-05-07T01:30:53;99863.53;;;11.51;100.00
23170;BME280;11753;43.144;24.714;2023-05-07T01:32:00;99858.25;;;11.51;100.00
23170;BME280;11753;43.144;24.714;2023-05-07T01:33:13;99853.28;;;11.48;100.00
23170;BME280;11753;43.144;24.714;2023-05-07T01:34:17;99855.56;;;11.43;100.00
23170;BME280;11753;43.144;24.714;2023-05-07T01:35:20;99857.16;;;11.36;100.00
23170;BME280;11753;43.144;24.714;2023-05-07T01:36:23;99854.13;;;11.31;100.00
23170;BME280;11753;43.144;24.714;2023-05-07T01:37:26;99853.16;;;11.32;100.00
23170;BME280;11753;43.144;24.714;2023-05-07T01:38:28;99849.38;;;11.35;100.00
23170;BME280;11753;43.144;24.714;2023-05-07T01:39:31;99850.19;;;11.35;100.00
23170;BME280;11753;43.144;24.714;2023-05-07T01:40:32;99850.75;;;11.39;100.00
23170;BME280;11753;43.144;24.714;2023-05-07T01:41:35;99850.97;;;11.45;100.00
23170;BME280;11753;43.144;24.714;2023-05-07T01:42:36;99857.66;;;11.40;100.00
23170;BME280;11753;43.144;24.714;2023-05-07T01:43:37;99849.91;;;11.38;100.00
23170;BME280;11753;43.144;24.714;2023-05-07T01:44:37;99859.63;;;11.38;100.00
23170;BME280;11753;43.144;24.714;2023-05-07T01:45:38;99843.00;;;11.37;100.00
23170;BME280;11753;43.144;24.714;2023-05-07T01:46:39;99858.44;;;11.32;100.00
23170;BME280;11753;43.144;24.714;2023-05-07T01:47:40;99848.56;;;11.34;100.00
23170;BME280;11753;43.144;24.714;2023-05-07T01:48:41;99850.53;;;11.32;100.00
23170;BME280;11753;43.144;24.714;2023-05-07T01:49:42;99854.44;;;11.28;100.00
23170;BME280;11753;43.144;24.714;2023-05-07T01:50:44;99855.19;;;11.20;100.00
23170;BME280;11753;43.144;24.714;2023-05-07T01:51:45;99843.97;;;11.18;100.00
23170;BME280;11753;43.144;24.714;2023-05-07T01:52:47;99850.84;;;11.11;100.00
23170;BME280;11753;43.144;24.714;2023-05-07T01:53:50;99847.31;;;11.02;100.00
23170;BME280;11753;43.144;24.714;2023-05-07T01:54:52;99833.97;;;11.04;100.00
23170;BME280;11753;43.144;24.714;2023-05-07T01:55:53;99832.16;;;11.05;100.00
23170;BME280;11753;43.144;24.714;2023-05-07T01:56:56;99838.25;;;11.05;100.00
23170;BME280;11753;43.144;24.714;2023-05-07T01:57:57;99833.53;;;11.09;100.00
23170;BME280;11753;43.144;24.714;2023-05-07T01:58:58;99837.81;;;11.10;100.00
23170;BME280;11753;43.144;24.714;2023-05-07T01:59:59;99832.94;;;11.15;100.00
23170;BME280;11753;43.144;24.714;2023-05-07T02:01:00;99829.31;;;11.16;100.00
23170;BME280;11753;43.144;24.714;2023-05-07T02:02:00;99833.28;;;11.20;100.00
23170;BME280;11753;43.144;24.714;2023-05-07T02:03:02;99833.00;;;11.23;100.00
23170;BME280;11753;43.144;24.714;2023-05-07T02:04:03;99836.28;;;11.25;100.00
23170;BME280;11753;43.144;24.714;2023-05-07T02:05:04;99830.72;;;11.28;100.00
23170;BME280;11753;43.144;24.714;2023-05-07T02:06:05;99832.38;;;11.29;100.00
23170;BME280;11753;43.144;24.714;2023-05-07T02:07:06;99833.34;;;11.28;100.00
23170;BME280;11753;43.144;24.714;2023-05-07T02:08:07;99835.84;;;11.29;100.00
23170;BME280;11753;43.144;24.714;2023-05-07T02:09:08;99831.69;;;11.27;100.00
23170;BME280;11753;43.144;24.714;2023-05-07T02:10:12;99830.03;;;11.26;100.00
23170;BME280;11753;43.144;24.714;2023-05-07T02:11:13;99836.28;;;11.25;100.00
23170;BME280;11753;43.144;24.714;2023-05-07T02:12:14;99833.97;;;11.22;100.00
23170;BME280;11753;43.144;24.714;2023-05-07T02:13:14;99835.56;;;11.15;100.00
23170;BME280;11753;43.144;24.714;2023-05-07T02:14:15;99826.63;;;11.08;100.00
23170;BME280;11753;43.144;24.714;2023-05-07T02:15:16;99827.50;;;11.16;100.00
23170;BME280;11753;43.144;24.714;2023-05-07T02:16:17;99831.63;;;11.19;100.00
23170;BME280;11753;43.144;24.714;2023-05-07T02:17:19;99834.94;;;11.21;100.00
23170;BME280;11753;43.144;24.714;2023-05-07T02:18:20;99834.47;;;11.25;100.00
23170;BME280;11753;43.144;24.714;2023-05-07T02:19:21;99828.72;;;11.22;100.00
23170;BME280;11753;43.144;24.714;2023-05-07T02:20:21;99837.13;;;11.25;100.00
23170;BME280;11753;43.144;24.714;2023-05-07T02:21:22;99838.63;;;11.28;100.00
23170;BME280;11753;43.144;24.714;2023-05-07T02:22:23;99828.91;;;11.28;100.00
23170;BME280;11753;43.144;24.714;2023-05-07T02:23:24;99836.13;;;11.26;100.00
23170;BME280;11753;43.144;24.714;2023-05-07T02:24:24;99834.47;;;11.25;100.00
23170;BME280;11753;43.144;24.714;2023-05-07T02:25:25;99824.47;;;11.29;100.00
23170;BME280;11753;43.144;24.714;2023-05-07T02:26:26;99828.63;;;11.32;100.00
23170;BME280;11753;43.144;24.714;2023-05-07T02:27:27;99823.78;;;11.27;100.00
23170;BME280;11753;43.144;24.714;2023-05-07T02:28:28;99822.19;;;11.34;100.00
23170;BME280;11753;43.144;24.714;2023-05-07T02:29:29;99823.84;;;11.35;100.00
23170;BME280;11753;43.144;24.714;2023-05-07T02:30:31;99829.13;;;11.35;100.00
23170;BME280;11753;43.144;24.714;2023-05-07T02:31:33;99826.84;;;11.40;100.00
23170;BME280;11753;43.144;24.714;2023-05-07T02:32:34;99821.59;;;11.40;100.00
23170;BME280;11753;43.144;24.714;2023-05-07T02:33:35;99825.22;;;11.39;100.00
23170;BME280;11753;43.144;24.714;2023-05-07T02:34:37;99825.22;;;11.39;100.00
23170;BME280;11753;43.144;24.714;2023-05-07T02:35:38;99830.97;;;11.43;100.00
23170;BME280;11753;43.144;24.714;2023-05-07T02:36:38;99825.88;;;11.41;100.00
23170;BME280;11753;43.144;24.714;2023-05-07T02:37:40;99818.78;;;11.42;100.00
23170;BME280;11753;43.144;24.714;2023-05-07T02:38:41;99820.97;;;11.46;100.00
23170;BME280;11753;43.144;24.714;2023-05-07T02:39:42;99825.59;;;11.44;100.00
23170;BME280;11753;43.144;24.714;2023-05-07T02:40:43;99818.94;;;11.40;100.00
23170;BME280;11753;43.144;24.714;2023-05-07T02:41:44;99817.47;;;11.38;100.00
23170;BME280;11753;43.144;24.714;2023-05-07T02:42:45;99818.94;;;11.40;100.00
23170;BME280;11753;43.144;24.714;2023-05-07T02:43:46;99827.84;;;11.39;100.00
23170;BME280;11753;43.144;24.714;2023-05-07T02:44:47;99817.13;;;11.41;100.00
23170;BME280;11753;43.144;24.714;2023-05-07T02:45:48;99818.94;;;11.40;100.00
23170;BME280;11753;43.144;24.714;2023-05-07T02:46:49;99823.25;;;11.41;100.00
23170;BME280;11753;43.144;24.714;2023-05-07T02:47:49;99816.75;;;11.36;100.00
23170;BME280;11753;43.144;24.714;2023-05-07T02:48:50;99822.41;;;11.41;100.00
23170;BME280;11753;43.144;24.714;2023-05-07T02:49:51;99822.94;;;11.44;100.00
23170;BME280;11753;43.144;24.714;2023-05-07T02:50:51;99819.63;;;11.42;100.00
23170;BME280;11753;43.144;24.714;2023-05-07T02:51:52;99818.13;;;11.40;100.00
23170;BME280;11753;43.144;24.714;2023-05-07T02:52:52;99826.03;;;11.40;100.00
23170;BME280;11753;43.144;24.714;2023-05-07T02:53:53;99822.56;;;11.39;100.00
23170;BME280;11753;43.144;24.714;2023-05-07T02:54:53;99815.50;;;11.40;100.00
23170;BME280;11753;43.144;24.714;2023-05-07T02:55:56;99815.03;;;11.44;100.00
23170;BME280;11753;43.144;24.714;2023-05-07T02:56:57;99815.16;;;11.43;100.00
23170;BME280;11753;43.144;24.714;2023-05-07T02:57:58;99816.16;;;11.42;100.00
23170;BME280;11753;43.144;24.714;2023-05-07T02:58:59;99809.06;;;11.42;100.00
23170;BME280;11753;43.144;24.714;2023-05-07T03:00:10;99813.69;;;11.40;100.00
23170;BME280;11753;43.144;24.714;2023-05-07T03:01:12;99816.03;;;11.43;100.00
23170;BME280;11753;43.144;24.714;2023-05-07T03:02:14;99810.75;;;11.43;100.00
23170;BME280;11753;43.144;24.714;2023-05-07T03:03:15;99820.97;;;11.46;100.00
23170;BME280;11753;43.144;24.714;2023-05-07T03:04:16;99815.16;;;11.43;100.00
23170;BME280;11753;43.144;24.714;2023-05-07T03:05:17;99816.97;;;11.42;100.00
23170;BME280;11753;43.144;24.714;2023-05-07T03:06:18;99813.84;;;11.39;100.00
23170;BME280;11753;43.144;24.714;2023-05-07T03:07:19;99815.16;;;11.43;100.00
23170;BME280;11753;43.144;24.714;2023-05-07T03:08:20;99821.47;;;11.50;100.00
23170;BME280;11753;43.144;24.714;2023-05-07T03:09:21;99814.88;;;11.46;100.00
23170;BME280;11753;43.144;24.714;2023-05-07T03:10:22;99823.16;;;11.51;100.00
23170;BME280;11753;43.144;24.714;2023-05-07T03:11:23;99826.75;;;11.50;100.00
23170;BME280;11753;43.144;24.714;2023-05-07T03:12:24;99824.28;;;11.48;100.00
23170;BME280;11753;43.144;24.714;2023-05-07T03:13:25;99816.03;;;11.43;100.00
23170;BME280;11753;43.144;24.714;2023-05-07T03:14:26;99820.66;;;11.49;100.00
23170;BME280;11753;43.144;24.714;2023-05-07T03:15:26;99825.09;;;11.49;100.00
23170;BME280;11753;43.144;24.714;2023-05-07T03:16:27;99831.19;;;11.49;100.00
23170;BME280;11753;43.144;24.714;2023-05-07T03:17:28;99825.94;;;11.49;100.00
23170;BME280;11753;43.144;24.714;2023-05-07T03:18:29;99824.00;;;11.51;100.00
23170;BME280;11753;43.144;24.714;2023-05-07T03:19:30;99830.53;;;11.47;100.00
23170;BME280;11753;43.144;24.714;2023-05-07T03:20:31;99829.56;;;11.48;100.00
23170;BME280;11753;43.144;24.714;2023-05-07T03:21:32;99829.38;;;11.50;100.00
23170;BME280;11753;43.144;24.714;2023-05-07T03:22:34;99829.25;;;11.51;100.00
23170;BME280;11753;43.144;24.714;2023-05-07T03:23:34;99824.00;;;11.51;100.00
23170;BME280;11753;43.144;24.714;2023-05-07T03:24:35;99827.28;;;11.53;100.00
23170;BME280;11753;43.144;24.714;2023-05-07T03:25:36;99828.13;;;11.54;100.00
23170;BME280;11753;43.144;24.714;2023-05-07T03:26:37;99834.22;;;11.54;100.00
23170;BME280;11753;43.144;24.714;2023-05-07T03:27:38;99835.03;;;11.55;100.00
23170;BME280;11753;43.144;24.714;2023-05-07T03:28:39;99830.25;;;11.50;100.00
23170;BME280;11753;43.144;24.714;2023-05-07T03:29:40;99833.53;;;11.52;100.00
23170;BME280;11753;43.144;24.714;2023-05-07T03:30:41;99837.16;;;11.51;100.00
23170;BME280;11753;43.144;24.714;2023-05-07T03:31:42;99828.94;;;11.54;100.00
23170;BME280;11753;43.144;24.714;2023-05-07T03:32:43;99825.78;;;11.51;100.00
23170;BME280;11753;43.144;24.714;2023-05-07T03:33:57;99837.84;;;11.53;100.00
23170;BME280;11753;43.144;24.714;2023-05-07T03:34:58;99836.13;;;11.44;100.00
23170;BME280;11753;43.144;24.714;2023-05-07T03:35:59;99839.75;;;11.43;100.00
23170;BME280;11753;43.144;24.714;2023-05-07T03:37:00;99843.50;;;11.41;100.00
23170;BME280;11753;43.144;24.714;2023-05-07T03:38:01;99834.38;;;11.35;100.00
23170;BME280;11753;43.144;24.714;2023-05-07T03:39:02;99834.31;;;11.27;100.00
23170;BME280;11753;43.144;24.714;2023-05-07T03:40:03;99841.56;;;11.25;100.00
23170;BME280;11753;43.144;24.714;2023-05-07T03:41:05;99837.28;;;11.24;100.00
23170;BME280;11753;43.144;24.714;2023-05-07T03:42:06;99839.59;;;11.27;100.00
23170;BME280;11753;43.144;24.714;2023-05-07T03:43:07;99836.69;;;11.30;100.00
23170;BME280;11753;43.144;24.714;2023-05-07T03:44:08;99836.69;;;11.30;100.00
23170;BME280;11753;43.144;24.714;2023-05-07T03:45:09;99833.34;;;11.28;100.00
23170;BME280;11753;43.144;24.714;2023-05-07T03:46:10;99825.97;;;11.32;100.00
23170;BME280;11753;43.144;24.714;2023-05-07T03:47:11;99832.44;;;11.37;100.00
23170;BME280;11753;43.144;24.714;2023-05-07T03:48:13;99836.25;;;11.43;100.00
23170;BME280;11753;43.144;24.714;2023-05-07T03:49:14;99837.25;;;11.42;100.00
23170;BME280;11753;43.144;24.714;2023-05-07T03:50:15;99833.78;;;11.41;100.00
23170;BME280;11753;43.144;24.714;2023-05-07T03:51:16;99837.13;;;11.43;100.00
23170;BME280;11753;43.144;24.714;2023-05-07T03:52:17;99835.44;;;11.42;100.00
23170;BME280;11753;43.144;24.714;2023-05-07T03:53:23;99838.44;;;11.47;100.00
23170;BME280;11753;43.144;24.714;2023-05-07T03:54:26;99840.09;;;11.48;100.00
23170;BME280;11753;43.144;24.714;2023-05-07T03:55:27;99845.38;;;11.48;100.00
23170;BME280;11753;43.144;24.714;2023-05-07T03:56:28;99841.03;;;11.39;100.00
23170;BME280;11753;43.144;24.714;2023-05-07T03:57:29;99842.63;;;11.32;100.00
23170;BME280;11753;43.144;24.714;2023-05-07T03:58:30;99848.56;;;11.34;100.00
23170;BME280;11753;43.144;24.714;2023-05-07T03:59:31;99843.44;;;11.33;100.00
23170;BME280;11753;43.144;24.714;2023-05-07T04:00:31;99846.63;;;11.36;100.00
23170;BME280;11753;43.144;24.714;2023-05-07T04:01:39;99847.13;;;11.40;100.00
23170;BME280;11753;43.144;24.714;2023-05-07T04:02:40;99847.44;;;11.37;100.00
23170;BME280;11753;43.144;24.714;2023-05-07T04:03:40;99850.38;;;11.34;100.00
23170;BME280;11753;43.144;24.714;2023-05-07T04:04:41;99846.47;;;11.20;100.00
23170;BME280;11753;43.144;24.714;2023-05-07T04:05:42;99847.44;;;11.19;100.00
23170;BME280;11753;43.144;24.714;2023-05-07T04:06:42;99852.78;;;11.27;100.00
23170;BME280;11753;43.144;24.714;2023-05-07T04:07:43;99863.03;;;11.30;100.00
23170;BME280;11753;43.144;24.714;2023-05-07T04:08:44;99852.84;;;11.35;100.00
23170;BME280;11753;43.144;24.714;2023-05-07T04:09:45;99854.53;;;11.36;100.00
23170;BME280;11753;43.144;24.714;2023-05-07T04:10:46;99854.56;;;11.44;100.00
23170;BME280;11753;43.144;24.714;2023-05-07T04:11:46;99867.88;;;11.43;100.00
23170;BME280;11753;43.144;24.714;2023-05-07T04:12:47;99854.56;;;11.44;100.00
23170;BME280;11753;43.144;24.714;2023-05-07T04:13:48;99858.03;;;11.45;100.00
23170;BME280;11753;43.144;24.714;2023-05-07T04:14:49;99857.34;;;11.43;100.00
23170;BME280;11753;43.144;24.714;2023-05-07T04:15:51;99855.63;;;11.51;100.00
23170;BME280;11753;43.144;24.714;2023-05-07T04:16:53;99858.19;;;11.43;100.00
23170;BME280;11753;43.144;24.714;2023-05-07T04:17:54;99859.63;;;11.38;100.00
23170;BME280;11753;43.144;24.714;2023-05-07T04:18:55;99864.06;;;11.37;100.00
23170;BME280;11753;43.144;24.714;2023-05-07T04:19:59;99843.59;;;11.31;100.00
23170;BME280;11753;43.144;24.714;2023-05-07T04:21:00;99854.72;;;11.43;100.00
23170;BME280;11753;43.144;24.714;2023-05-07T04:22:01;99865.41;;;11.41;100.00
23170;BME280;11753;43.144;24.714;2023-05-07T04:23:02;99863.47;;;11.43;100.00
23170;BME280;11753;43.144;24.714;2023-05-07T04:24:03;99863.53;;;11.51;100.00
23170;BME280;11753;43.144;24.714;2023-05-07T04:25:05;99864.25;;;11.62;100.00
23170;BME280;11753;43.144;24.714;2023-05-07T04:26:06;99867.09;;;11.68;100.00
23170;BME280;11753;43.144;24.714;2023-05-07T04:27:07;99867.63;;;11.72;100.00
23170;BME280;11753;43.144;24.714;2023-05-07T04:28:08;99861.88;;;11.76;100.00
23170;BME280;11753;43.144;24.714;2023-05-07T04:29:09;99856.03;;;11.82;100.00
23170;BME280;11753;43.144;24.714;2023-05-07T04:30:15;99861.66;;;11.88;100.00
23170;BME280;11753;43.144;24.714;2023-05-07T04:31:16;99866.31;;;11.94;100.00
23170;BME280;11753;43.144;24.714;2023-05-07T04:32:17;99867.34;;;12.01;100.00
23170;BME280;11753;43.144;24.714;2023-05-07T04:33:18;99863.56;;;12.03;100.00
23170;BME280;11753;43.144;24.714;2023-05-07T04:34:19;99865.41;;;12.11;100.00
23170;BME280;11753;43.144;24.714;2023-05-07T04:35:21;99874.16;;;12.11;100.00
23170;BME280;11753;43.144;24.714;2023-05-07T04:36:22;99862.31;;;12.16;100.00
23170;BME280;11753;43.144;24.714;2023-05-07T04:37:23;99870.91;;;12.18;100.00
23170;BME280;11753;43.144;24.714;2023-05-07T04:38:24;99864.34;;;12.22;100.00
23170;BME280;11753;43.144;24.714;2023-05-07T04:39:27;99865.66;;;12.26;100.00
23170;BME280;11753;43.144;24.714;2023-05-07T04:40:28;99871.47;;;12.29;100.00
23170;BME280;11753;43.144;24.714;2023-05-07T04:41:29;99865.34;;;12.29;100.00
23170;BME280;11753;43.144;24.714;2023-05-07T04:42:30;99877.59;;;12.38;100.00
23170;BME280;11753;43.144;24.714;2023-05-07T04:43:32;99877.63;;;12.46;100.00
23170;BME280;11753;43.144;24.714;2023-05-07T04:44:32;99878.91;;;12.42;100.00
23170;BME280;11753;43.144;24.714;2023-05-07T04:45:33;99869.19;;;12.43;100.00
23170;BME280;11753;43.144;24.714;2023-05-07T04:46:33;99880.63;;;12.51;100.00
23170;BME280;11753;43.144;24.714;2023-05-07T04:47:34;99874.66;;;12.49;100.00
23170;BME280;11753;43.144;24.714;2023-05-07T04:48:35;99874.84;;;12.56;100.00
23170;BME280;11753;43.144;24.714;2023-05-07T04:49:37;99880.81;;;12.58;100.00
23170;BME280;11753;43.144;24.714;2023-05-07T04:50:38;99873.38;;;12.61;100.00
23170;BME280;11753;43.144;24.714;2023-05-07T04:51:39;99876.06;;;12.70;100.00
23170;BME280;11753;43.144;24.714;2023-05-07T04:52:43;99871.78;;;12.77;100.00
23170;BME280;11753;43.144;24.714;2023-05-07T04:53:44;99872.47;;;12.79;100.00
23170;BME280;11753;43.144;24.714;2023-05-07T04:54:45;99869.50;;;12.82;100.00
23170;BME280;11753;43.144;24.714;2023-05-07T04:55:46;99868.19;;;12.86;100.00
23170;BME280;11753;43.144;24.714;2023-05-07T04:56:48;99870.31;;;12.90;100.00
23170;BME280;11753;43.144;24.714;2023-05-07T04:57:48;99871.34;;;12.98;100.00
23170;BME280;11753;43.144;24.714;2023-05-07T04:58:52;99875.47;;;13.00;100.00
23170;BME280;11753;43.144;24.714;2023-05-07T04:59:54;99876.63;;;13.06;100.00
23170;BME280;11753;43.144;24.714;2023-05-07T05:00:55;99883.25;;;13.10;100.00
23170;BME280;11753;43.144;24.714;2023-05-07T05:01:57;99878.44;;;13.13;100.00
23170;BME280;11753;43.144;24.714;2023-05-07T05:02:58;99883.44;;;13.16;100.00
23170;BME280;11753;43.144;24.714;2023-05-07T05:03:59;99875.84;;;13.21;100.00
23170;BME280;11753;43.144;24.714;2023-05-07T05:05:01;99881.47;;;13.27;100.00
23170;BME280;11753;43.144;24.714;2023-05-07T05:06:05;99883.81;;;13.30;100.00
23170;BME280;11753;43.144;24.714;2023-05-07T05:07:06;99886.94;;;13.33;100.00
23170;BME280;11753;43.144;24.714;2023-05-07T05:08:06;99885.78;;;13.36;100.00
23170;BME280;11753;43.144;24.714;2023-05-07T05:09:07;99877.34;;;13.40;100.00
23170;BME280;11753;43.144;24.714;2023-05-07T05:10:09;99877.88;;;13.44;100.00
23170;BME280;11753;43.144;24.714;2023-05-07T05:11:09;99877.53;;;13.47;100.00
23170;BME280;11753;43.144;24.714;2023-05-07T05:12:12;99879.81;;;13.50;100.00
23170;BME280;11753;43.144;24.714;2023-05-07T05:13:13;99880.16;;;13.55;100.00
23170;BME280;11753;43.144;24.714;2023-05-07T05:14:13;99881.50;;;13.59;100.00
23170;BME280;11753;43.144;24.714;2023-05-07T05:15:17;99879.03;;;13.58;100.00
23170;BME280;11753;43.144;24.714;2023-05-07T05:16:17;99878.84;;;13.67;100.00
23170;BME280;11753;43.144;24.714;2023-05-07T05:17:18;99882.13;;;13.69;100.00